sensor_id;sensor_type;location;lat;lon;timestamp;pressure;altitude;pressure_sealevel;temperature;humidity
72116;BME280;59991;52.140;5.428;2023-05-12T00:00:26;101754.09;;;11.75;100.00
72116;BME280;59991;52.140;5.428;2023-05-12T00:00:58;101754.91;;;11.76;100.00
72116;BME280;59991;52.140;5.428;2023-05-12T00:01:29;101753.31;;;11.75;100.00
72116;BME280;59991;52.140;5.428;2023-05-12T00:02:01;101755.25;;;11.74;100.00
72116;BME280;59991;52.140;5.428;2023-05-12T00:02:33;101753.69;;;11.73;100.00
72116;BME280;59991;52.140;5.428;2023-05-12T00:03:05;101746.22;;;11.70;100.00
72116;BME280;59991;52.140;5.428;2023-05-12T00:03:36;101753.25;;;11.71;100.00
72116;BME280;59991;52.140;5.428;2023-05-12T00:04:08;101757.16;;;11.70;100.00
72116;BME280;59991;52.140;5.428;2023-05-12T00:04:40;101752.13;;;11.72;100.00
72116;BME280;59991;52.140;5.428;2023-05-12T00:05:12;101755.63;;;11.73;100.00
72116;BME280;59991;52.140;5.428;2023-05-12T00:05:43;101752.50;;;11.74;100.00
72116;BME280;59991;52.140;5.428;2023-05-12T00:06:16;101752.19;;;11.76;100.00
72116;BME280;59991;52.140;5.428;2023-05-12T00:06:49;101754.09;;;11.75;100.00
72116;BME280;59991;52.140;5.428;2023-05-12T00:07:21;101752.50;;;11.74;100.00
72116;BME280;59991;52.140;5.428;2023-05-12T00:07:53;101749.78;;;11.74;100.00
72116;BME280;59991;52.140;5.428;2023-05-12T00:08:25;101747.03;;;11.74;100.00
72116;BME280;59991;52.140;5.428;2023-05-12T00:08:56;101753.69;;;11.73;100.00
72116;BME280;59991;52.140;5.428;2023-05-12T00:09:28;101749.38;;;11.72;100.00
72116;BME280;59991;52.140;5.428;2023-05-12T00:09:59;101750.97;;;11.73;100.00
72116;BME280;59991;52.140;5.428;2023-05-12T00:10:31;101745.84;;;11.72;100.00
72116;BME280;59991;52.140;5.428;2023-05-12T00:11:03;101754.41;;;11.70;100.00
72116;BME280;59991;52.140;5.428;2023-05-12T00:11:36;101757.16;;;11.70;100.00
72116;BME280;59991;52.140;5.428;2023-05-12T00:12:08;101751.25;;;11.68;100.00
72116;BME280;59991;52.140;5.428;2023-05-12T00:12:40;101752.41;;;11.67;100.00
72116;BME280;59991;52.140;5.428;2023-05-12T00:13:11;101757.88;;;11.67;100.00
72116;BME280;59991;52.140;5.428;2023-05-12T00:13:43;101747.72;;;11.68;100.00
72116;BME280;59991;52.140;5.428;2023-05-12T00:14:15;101743.84;;;11.69;100.00
72116;BME280;59991;52.140;5.428;2023-05-12T00:14:46;101749.66;;;11.67;100.00
72116;BME280;59991;52.140;5.428;2023-05-12T00:15:18;101748.09;;;11.66;100.00
72116;BME280;59991;52.140;5.428;2023-05-12T00:15:50;101745.72;;;11.65;100.00
72116;BME280;59991;52.140;5.428;2023-05-12T00:16:21;101746.06;;;11.63;100.00
72116;BME280;59991;52.140;5.428;2023-05-12T00:16:53;101744.50;;;11.62;100.00
72116;BME280;59991;52.140;5.428;2023-05-12T00:17:25;101744.06;;;11.60;100.00
72116;BME280;59991;52.140;5.428;2023-05-12T00:17:58;101750.66;;;11.59;100.00
72116;BME280;59991;52.140;5.428;2023-05-12T00:18:29;101752.25;;;11.60;100.00
72116;BME280;59991;52.140;5.428;2023-05-12T00:19:01;101756.22;;;11.63;100.00
72116;BME280;59991;52.140;5.428;2023-05-12T00:19:34;101747.22;;;11.62;100.00
72116;BME280;59991;52.140;5.428;2023-05-12T00:20:07;101743.69;;;11.62;100.00
72116;BME280;59991;52.140;5.428;2023-05-12T00:20:38;101745.28;;;11.63;100.00
72116;BME280;59991;52.140;5.428;2023-05-12T00:21:10;101740.19;;;11.61;100.00
72116;BME280;59991;52.140;5.428;2023-05-12T00:21:43;101748.38;;;11.61;100.00
72116;BME280;59991;52.140;5.428;2023-05-12T00:22:14;101747.50;;;11.57;100.00
72116;BME280;59991;52.140;5.428;2023-05-12T00:22:47;101745.13;;;11.56;100.00
72116;BME280;59991;52.140;5.428;2023-05-12T00:23:18;101751.38;;;11.56;100.00
72116;BME280;59991;52.140;5.428;2023-05-12T00:23:50;101742.78;;;11.54;100.00
72116;BME280;59991;52.140;5.428;2023-05-12T00:24:21;101739.69;;;11.56;100.00
72116;BME280;59991;52.140;5.428;2023-05-12T00:24:52;101742.78;;;11.54;100.00
72116;BME280;59991;52.140;5.428;2023-05-12T00:25:24;101742.78;;;11.54;100.00
72116;BME280;59991;52.140;5.428;2023-05-12T00:25:55;101741.56;;;11.52;100.00
72116;BME280;59991;52.140;5.428;2023-05-12T00:26:27;101740.44;;;11.53;100.00
72116;BME280;59991;52.140;5.428;2023-05-12T00:26:59;101740.44;;;11.53;100.00
72116;BME280;59991;52.140;5.428;2023-05-12T00:27:31;101743.94;;;11.53;100.00
72116;BME280;59991;52.140;5.428;2023-05-12T00:28:04;101741.22;;;11.53;100.00
72116;BME280;59991;52.140;5.428;2023-05-12T00:28:35;101739.63;;;11.52;100.00
72116;BME280;59991;52.140;5.428;2023-05-12T00:29:07;101735.31;;;11.51;100.00
72116;BME280;59991;52.140;5.428;2023-05-12T00:29:38;101740.34;;;11.49;100.00
72116;BME280;59991;52.140;5.428;2023-05-12T00:30:10;101736.81;;;11.49;100.00
72116;BME280;59991;52.140;5.428;2023-05-12T00:30:42;101741.50;;;11.48;100.00
72116;BME280;59991;52.140;5.428;2023-05-12T00:31:13;101741.84;;;11.47;100.00
72116;BME280;59991;52.140;5.428;2023-05-12T00:31:46;101739.47;;;11.45;100.00
72116;BME280;59991;52.140;5.428;2023-05-12T00:32:17;101733.22;;;11.45;100.00
72116;BME280;59991;52.140;5.428;2023-05-12T00:32:49;101737.91;;;11.44;100.00
72116;BME280;59991;52.140;5.428;2023-05-12T00:33:21;101736.31;;;11.43;100.00
72116;BME280;59991;52.140;5.428;2023-05-12T00:33:53;101732.81;;;11.42;100.00
72116;BME280;59991;52.140;5.428;2023-05-12T00:34:26;101734.75;;;11.42;100.00
72116;BME280;59991;52.140;5.428;2023-05-12T00:34:57;101737.91;;;11.44;100.00
72116;BME280;59991;52.140;5.428;2023-05-12T00:35:31;101735.16;;;11.44;100.00
72116;BME280;59991;52.140;5.428;2023-05-12T00:36:06;101738.69;;;11.45;100.00
72116;BME280;59991;52.140;5.428;2023-05-12T00:36:38;101733.59;;;11.43;100.00
72116;BME280;59991;52.140;5.428;2023-05-12T00:37:10;101729.72;;;11.44;100.00
72116;BME280;59991;52.140;5.428;2023-05-12T00:37:42;101737.91;;;11.44;100.00
72116;BME280;59991;52.140;5.428;2023-05-12T00:38:13;101734.03;;;11.45;100.00
72116;BME280;59991;52.140;5.428;2023-05-12T00:38:45;101730.16;;;11.46;100.00
72116;BME280;59991;52.140;5.428;2023-05-12T00:39:16;101730.16;;;11.46;100.00
72116;BME280;59991;52.140;5.428;2023-05-12T00:39:48;101729.78;;;11.48;100.00
72116;BME280;59991;52.140;5.428;2023-05-12T00:40:20;101731.72;;;11.47;100.00
72116;BME280;59991;52.140;5.428;2023-05-12T00:40:51;101737.97;;;11.48;100.00
72116;BME280;59991;52.140;5.428;2023-05-12T00:41:23;101733.66;;;11.47;100.00
72116;BME280;59991;52.140;5.428;2023-05-12T00:41:57;101735.25;;;11.48;100.00
72116;BME280;59991;52.140;5.428;2023-05-12T00:42:29;101730.56;;;11.48;100.00
72116;BME280;59991;52.140;5.428;2023-05-12T00:43:01;101732.88;;;11.46;100.00
72116;BME280;59991;52.140;5.428;2023-05-12T00:43:33;101732.88;;;11.46;100.00
72116;BME280;59991;52.140;5.428;2023-05-12T00:44:04;101734.81;;;11.46;100.00
72116;BME280;59991;52.140;5.428;2023-05-12T00:44:36;101732.09;;;11.46;100.00
72116;BME280;59991;52.140;5.428;2023-05-12T00:45:08;101728.56;;;11.45;100.00
72116;BME280;59991;52.140;5.428;2023-05-12T00:45:39;101725.03;;;11.45;100.00
72116;BME280;59991;52.140;5.428;2023-05-12T00:46:11;101739.13;;;11.47;100.00
72116;BME280;59991;52.140;5.428;2023-05-12T00:46:42;101730.94;;;11.47;100.00
72116;BME280;59991;52.140;5.428;2023-05-12T00:47:14;101729.00;;;11.47;100.00
72116;BME280;59991;52.140;5.428;2023-05-12T00:47:46;101733.66;;;11.47;100.00
72116;BME280;59991;52.140;5.428;2023-05-12T00:48:17;101736.41;;;11.47;100.00
72116;BME280;59991;52.140;5.428;2023-05-12T00:48:50;101728.19;;;11.47;100.00
72116;BME280;59991;52.140;5.428;2023-05-12T00:49:23;101729.00;;;11.47;100.00
72116;BME280;59991;52.140;5.428;2023-05-12T00:49:55;101735.59;;;11.46;100.00
72116;BME280;59991;52.140;5.428;2023-05-12T00:50:27;101732.44;;;11.44;100.00
72116;BME280;59991;52.140;5.428;2023-05-12T00:50:59;101724.97;;;11.41;100.00
72116;BME280;59991;52.140;5.428;2023-05-12T00:51:32;101726.13;;;11.40;100.00
72116;BME280;59991;52.140;5.428;2023-05-12T00:52:05;101732.38;;;11.40;100.00
72116;BME280;59991;52.140;5.428;2023-05-12T00:52:38;101722.94;;;11.38;100.00
72116;BME280;59991;52.140;5.428;2023-05-12T00:53:11;101729.22;;;11.38;100.00
72116;BME280;59991;52.140;5.428;2023-05-12T00:53:43;101727.25;;;11.39;100.00
72116;BME280;59991;52.140;5.428;2023-05-12T00:54:21;101730.34;;;11.37;100.00
72116;BME280;59991;52.140;5.428;2023-05-12T00:54:53;101726.03;;;11.36;100.00
72116;BME280;59991;52.140;5.428;2023-05-12T00:55:25;101727.19;;;11.35;100.00
72116;BME280;59991;52.140;5.428;2023-05-12T00:55:57;101729.16;;;11.35;100.00
72116;BME280;59991;52.140;5.428;2023-05-12T00:56:30;101726.44;;;11.35;100.00
72116;BME280;59991;52.140;5.428;2023-05-12T00:57:05;101729.56;;;11.37;100.00
72116;BME280;59991;52.140;5.428;2023-05-12T00:57:37;101724.09;;;11.37;100.00
72116;BME280;59991;52.140;5.428;2023-05-12T00:58:09;101727.97;;;11.36;100.00
72116;BME280;59991;52.140;5.428;2023-05-12T00:58:40;101726.84;;;11.37;100.00
72116;BME280;59991;52.140;5.428;2023-05-12T00:59:11;101723.31;;;11.36;100.00
72116;BME280;59991;52.140;5.428;2023-05-12T00:59:44;101728.41;;;11.38;100.00
72116;BME280;59991;52.140;5.428;2023-05-12T01:00:16;101722.94;;;11.38;100.00
72116;BME280;59991;52.140;5.428;2023-05-12T01:00:49;101723.75;;;11.38;100.00
72116;BME280;59991;52.140;5.428;2023-05-12T01:01:22;101721.00;;;11.38;100.00
72116;BME280;59991;52.140;5.428;2023-05-12T01:01:54;101716.34;;;11.39;100.00
72116;BME280;59991;52.140;5.428;2023-05-12T01:02:26;101724.53;;;11.39;100.00
72116;BME280;59991;52.140;5.428;2023-05-12T01:02:59;101722.59;;;11.39;100.00
72116;BME280;59991;52.140;5.428;2023-05-12T01:03:31;101723.38;;;11.40;100.00
72116;BME280;59991;52.140;5.428;2023-05-12T01:04:03;101721.00;;;11.38;100.00
72116;BME280;59991;52.140;5.428;2023-05-12T01:04:34;101721.38;;;11.37;100.00
72116;BME280;59991;52.140;5.428;2023-05-12T01:05:07;101719.44;;;11.37;100.00
72116;BME280;59991;52.140;5.428;2023-05-12T01:05:48;101720.22;;;11.38;100.00
72116;BME280;59991;52.140;5.428;2023-05-12T01:06:26;101718.63;;;11.37;100.00
72116;BME280;59991;52.140;5.428;2023-05-12T01:07:09;101712.03;;;11.38;100.00
72116;BME280;59991;52.140;5.428;2023-05-12T01:07:43;101712.81;;;11.38;100.00
72116;BME280;59991;52.140;5.428;2023-05-12T01:08:18;101713.97;;;11.37;100.00
72116;BME280;59991;52.140;5.428;2023-05-12T01:08:50;101714.75;;;11.38;100.00
72116;BME280;59991;52.140;5.428;2023-05-12T01:09:23;101713.97;;;11.37;100.00
72116;BME280;59991;52.140;5.428;2023-05-12T01:09:55;101713.97;;;11.37;100.00
72116;BME280;59991;52.140;5.428;2023-05-12T01:10:27;101711.59;;;11.36;100.00
72116;BME280;59991;52.140;5.428;2023-05-12T01:10:59;101708.47;;;11.34;100.00
72116;BME280;59991;52.140;5.428;2023-05-12T01:11:30;101707.31;;;11.35;100.00
72116;BME280;59991;52.140;5.428;2023-05-12T01:12:02;101710.03;;;11.35;100.00
72116;BME280;59991;52.140;5.428;2023-05-12T01:12:33;101705.34;;;11.35;100.00
72116;BME280;59991;52.140;5.428;2023-05-12T01:13:05;101716.66;;;11.34;100.00
72116;BME280;59991;52.140;5.428;2023-05-12T01:13:38;101709.63;;;11.33;100.00
72116;BME280;59991;52.140;5.428;2023-05-12T01:14:11;101705.31;;;11.32;100.00
72116;BME280;59991;52.140;5.428;2023-05-12T01:14:42;101710.75;;;11.32;100.00
72116;BME280;59991;52.140;5.428;2023-05-12T01:15:14;101709.19;;;11.31;100.00
72116;BME280;59991;52.140;5.428;2023-05-12T01:15:46;101707.25;;;11.31;100.00
72116;BME280;59991;52.140;5.428;2023-05-12T01:16:22;101711.56;;;11.32;100.00
72116;BME280;59991;52.140;5.428;2023-05-12T01:16:59;101710.41;;;11.33;100.00
72116;BME280;59991;52.140;5.428;2023-05-12T01:17:33;101711.19;;;11.34;100.00
72116;BME280;59991;52.140;5.428;2023-05-12T01:18:08;101709.63;;;11.33;100.00
72116;BME280;59991;52.140;5.428;2023-05-12T01:18:42;101705.72;;;11.34;100.00
72116;BME280;59991;52.140;5.428;2023-05-12T01:19:47;101706.88;;;11.33;100.00
72116;BME280;59991;52.140;5.428;2023-05-12T01:20:21;101699.41;;;11.30;100.00
72116;BME280;59991;52.140;5.428;2023-05-12T01:20:54;101701.00;;;11.31;100.00
72116;BME280;59991;52.140;5.428;2023-05-12T01:21:26;101698.63;;;11.29;100.00
72116;BME280;59991;52.140;5.428;2023-05-12T01:21:58;101706.03;;;11.29;100.00
72116;BME280;59991;52.140;5.428;2023-05-12T01:22:32;101699.34;;;11.26;100.00
72116;BME280;59991;52.140;5.428;2023-05-12T01:23:04;101705.59;;;11.27;100.00
72116;BME280;59991;52.140;5.428;2023-05-12T01:23:41;101702.84;;;11.27;100.00
72116;BME280;59991;52.140;5.428;2023-05-12T01:24:16;101703.66;;;11.27;100.00
72116;BME280;59991;52.140;5.428;2023-05-12T01:24:54;101703.66;;;11.27;100.00
72116;BME280;59991;52.140;5.428;2023-05-12T01:25:27;101696.25;;;11.28;100.00
72116;BME280;59991;52.140;5.428;2023-05-12T01:26:04;101698.63;;;11.29;100.00
72116;BME280;59991;52.140;5.428;2023-05-12T01:26:37;101701.72;;;11.28;100.00
72116;BME280;59991;52.140;5.428;2023-05-12T01:27:09;101694.31;;;11.28;100.00
72116;BME280;59991;52.140;5.428;2023-05-12T01:27:41;101697.81;;;11.29;100.00
72116;BME280;59991;52.140;5.428;2023-05-12T01:28:13;101702.13;;;11.30;100.00
72116;BME280;59991;52.140;5.428;2023-05-12T01:28:46;101701.34;;;11.29;100.00
72116;BME280;59991;52.140;5.428;2023-05-12T01:29:18;101697.81;;;11.29;100.00
72116;BME280;59991;52.140;5.428;2023-05-12T01:30:00;101696.25;;;11.28;100.00
72116;BME280;59991;52.140;5.428;2023-05-12T01:30:32;101697.41;;;11.27;100.00
72116;BME280;59991;52.140;5.428;2023-05-12T01:31:05;101704.44;;;11.28;100.00
72116;BME280;59991;52.140;5.428;2023-05-12T01:31:37;101697.41;;;11.27;100.00
72116;BME280;59991;52.140;5.428;2023-05-12T01:32:09;101696.25;;;11.28;100.00
72116;BME280;59991;52.140;5.428;2023-05-12T01:32:41;101701.72;;;11.28;100.00
72116;BME280;59991;52.140;5.428;2023-05-12T01:33:13;101698.63;;;11.29;100.00
72116;BME280;59991;52.140;5.428;2023-05-12T01:33:44;101700.91;;;11.27;100.00
72116;BME280;59991;52.140;5.428;2023-05-12T01:34:16;101696.97;;;11.25;100.00
72116;BME280;59991;52.140;5.428;2023-05-12T01:34:49;101691.88;;;11.23;100.00
72116;BME280;59991;52.140;5.428;2023-05-12T01:35:21;101694.22;;;11.25;100.00
72116;BME280;59991;52.140;5.428;2023-05-12T01:35:52;101693.44;;;11.24;100.00
72116;BME280;59991;52.140;5.428;2023-05-12T01:36:24;101696.16;;;11.24;100.00
72116;BME280;59991;52.140;5.428;2023-05-12T01:36:55;101696.97;;;11.25;100.00
72116;BME280;59991;52.140;5.428;2023-05-12T01:37:27;101695.44;;;11.27;100.00
72116;BME280;59991;52.140;5.428;2023-05-12T01:37:59;101697.03;;;11.28;100.00
72116;BME280;59991;52.140;5.428;2023-05-12T01:38:31;101698.19;;;11.27;100.00
72116;BME280;59991;52.140;5.428;2023-05-12T01:39:03;101695.44;;;11.27;100.00
72116;BME280;59991;52.140;5.428;2023-05-12T01:39:34;101700.13;;;11.27;100.00
72116;BME280;59991;52.140;5.428;2023-05-12T01:40:07;101700.91;;;11.27;100.00
72116;BME280;59991;52.140;5.428;2023-05-12T01:40:38;101693.88;;;11.26;100.00
72116;BME280;59991;52.140;5.428;2023-05-12T01:41:10;101695.44;;;11.27;100.00
72116;BME280;59991;52.140;5.428;2023-05-12T01:41:42;101696.59;;;11.26;100.00
72116;BME280;59991;52.140;5.428;2023-05-12T01:42:19;101701.72;;;11.28;100.00
72116;BME280;59991;52.140;5.428;2023-05-12T01:42:50;101696.25;;;11.28;100.00
72116;BME280;59991;52.140;5.428;2023-05-12T01:43:21;101700.91;;;11.27;100.00
72116;BME280;59991;52.140;5.428;2023-05-12T01:43:53;101699.41;;;11.30;100.00
72116;BME280;59991;52.140;5.428;2023-05-12T01:44:26;101701.00;;;11.31;100.00
72116;BME280;59991;52.140;5.428;2023-05-12T01:44:57;101704.50;;;11.31;100.00
72116;BME280;59991;52.140;5.428;2023-05-12T01:45:28;101701.00;;;11.31;100.00
72116;BME280;59991;52.140;5.428;2023-05-12T01:46:00;101701.78;;;11.31;100.00
72116;BME280;59991;52.140;5.428;2023-05-12T01:46:31;101707.59;;;11.30;100.00
72116;BME280;59991;52.140;5.428;2023-05-12T01:47:03;101704.88;;;11.30;100.00
72116;BME280;59991;52.140;5.428;2023-05-12T01:47:35;101694.31;;;11.28;100.00
72116;BME280;59991;52.140;5.428;2023-05-12T01:48:06;101700.56;;;11.29;100.00
72116;BME280;59991;52.140;5.428;2023-05-12T01:48:38;101700.13;;;11.27;100.00
72116;BME280;59991;52.140;5.428;2023-05-12T01:49:09;101700.91;;;11.27;100.00
72116;BME280;59991;52.140;5.428;2023-05-12T01:49:41;101712.28;;;11.29;100.00
72116;BME280;59991;52.140;5.428;2023-05-12T01:50:12;101700.56;;;11.29;100.00
72116;BME280;59991;52.140;5.428;2023-05-12T01:50:43;101700.19;;;11.30;100.00
72116;BME280;59991;52.140;5.428;2023-05-12T01:51:15;101702.56;;;11.32;100.00
72116;BME280;59991;52.140;5.428;2023-05-12T01:51:47;101704.16;;;11.33;100.00
72116;BME280;59991;52.140;5.428;2023-05-12T01:52:19;101704.16;;;11.33;100.00
72116;BME280;59991;52.140;5.428;2023-05-12T01:52:51;101697.91;;;11.32;100.00
72116;BME280;59991;52.140;5.428;2023-05-12T01:53:22;101701.44;;;11.33;100.00
72116;BME280;59991;52.140;5.428;2023-05-12T01:53:56;101704.94;;;11.33;100.00
72116;BME280;59991;52.140;5.428;2023-05-12T01:54:28;101704.16;;;11.33;100.00
72116;BME280;59991;52.140;5.428;2023-05-12T01:54:59;101702.56;;;11.32;100.00
72116;BME280;59991;52.140;5.428;2023-05-12T01:55:31;101705.31;;;11.32;100.00
72116;BME280;59991;52.140;5.428;2023-05-12T01:56:02;101708.03;;;11.32;100.00
72116;BME280;59991;52.140;5.428;2023-05-12T01:56:34;101706.09;;;11.32;100.00
72116;BME280;59991;52.140;5.428;2023-05-12T01:57:05;101702.22;;;11.33;100.00
72116;BME280;59991;52.140;5.428;2023-05-12T01:57:37;101704.16;;;11.33;100.00
72116;BME280;59991;52.140;5.428;2023-05-12T01:58:08;101706.88;;;11.33;100.00
72116;BME280;59991;52.140;5.428;2023-05-12T01:58:40;101705.72;;;11.34;100.00
72116;BME280;59991;52.140;5.428;2023-05-12T01:59:11;101705.72;;;11.34;100.00
72116;BME280;59991;52.140;5.428;2023-05-12T01:59:43;101713.94;;;11.34;100.00
72116;BME280;59991;52.140;5.428;2023-05-12T02:00:14;101703.38;;;11.32;100.00
72116;BME280;59991;52.140;5.428;2023-05-12T02:00:46;101704.16;;;11.33;100.00
72116;BME280;59991;52.140;5.428;2023-05-12T02:01:18;101707.31;;;11.35;100.00
72116;BME280;59991;52.140;5.428;2023-05-12T02:01:49;101709.25;;;11.34;100.00
72116;BME280;59991;52.140;5.428;2023-05-12T02:02:21;101707.31;;;11.35;100.00
72116;BME280;59991;52.140;5.428;2023-05-12T02:02:52;101703.41;;;11.36;100.00
72116;BME280;59991;52.140;5.428;2023-05-12T02:03:24;101699.53;;;11.37;100.00
72116;BME280;59991;52.140;5.428;2023-05-12T02:03:55;101706.56;;;11.38;100.00
72116;BME280;59991;52.140;5.428;2023-05-12T02:04:27;101710.09;;;11.38;100.00
72116;BME280;59991;52.140;5.428;2023-05-12T02:04:59;101701.53;;;11.40;100.00
72116;BME280;59991;52.140;5.428;2023-05-12T02:05:30;101698.81;;;11.40;100.00
72116;BME280;59991;52.140;5.428;2023-05-12T02:06:02;101700.75;;;11.39;100.00
72116;BME280;59991;52.140;5.428;2023-05-12T02:06:33;101714.41;;;11.39;100.00
72116;BME280;59991;52.140;5.428;2023-05-12T02:07:05;101707.34;;;11.38;100.00
72116;BME280;59991;52.140;5.428;2023-05-12T02:07:36;101704.19;;;11.36;100.00
72116;BME280;59991;52.140;5.428;2023-05-12T02:08:08;101702.63;;;11.35;100.00
72116;BME280;59991;52.140;5.428;2023-05-12T02:08:40;101701.06;;;11.34;100.00
72116;BME280;59991;52.140;5.428;2023-05-12T02:09:11;101701.84;;;11.35;100.00
72116;BME280;59991;52.140;5.428;2023-05-12T02:09:43;101701.84;;;11.35;100.00
72116;BME280;59991;52.140;5.428;2023-05-12T02:10:15;101697.94;;;11.36;100.00
72116;BME280;59991;52.140;5.428;2023-05-12T02:10:47;101696.00;;;11.36;100.00
72116;BME280;59991;52.140;5.428;2023-05-12T02:11:18;101699.88;;;11.35;100.00
72116;BME280;59991;52.140;5.428;2023-05-12T02:11:50;101706.53;;;11.34;100.00
72116;BME280;59991;52.140;5.428;2023-05-12T02:12:21;101709.25;;;11.34;100.00
72116;BME280;59991;52.140;5.428;2023-05-12T02:12:53;101704.94;;;11.33;100.00
72116;BME280;59991;52.140;5.428;2023-05-12T02:13:24;101700.63;;;11.32;100.00
72116;BME280;59991;52.140;5.428;2023-05-12T02:13:56;101703.38;;;11.32;100.00
72116;BME280;59991;52.140;5.428;2023-05-12T02:14:28;101699.06;;;11.31;100.00
72116;BME280;59991;52.140;5.428;2023-05-12T02:15:00;101701.00;;;11.31;100.00
72116;BME280;59991;52.140;5.428;2023-05-12T02:15:31;101701.00;;;11.31;100.00
72116;BME280;59991;52.140;5.428;2023-05-12T02:16:03;101701.00;;;11.31;100.00
72116;BME280;59991;52.140;5.428;2023-05-12T02:16:35;101701.78;;;11.31;100.00
72116;BME280;59991;52.140;5.428;2023-05-12T02:17:07;101705.66;;;11.30;100.00
72116;BME280;59991;52.140;5.428;2023-05-12T02:17:38;101695.88;;;11.29;100.00
72116;BME280;59991;52.140;5.428;2023-05-12T02:18:10;101701.34;;;11.29;100.00
72116;BME280;59991;52.140;5.428;2023-05-12T02:18:41;101702.50;;;11.28;100.00
72116;BME280;59991;52.140;5.428;2023-05-12T02:19:13;101698.97;;;11.28;100.00
72116;BME280;59991;52.140;5.428;2023-05-12T02:19:44;101697.41;;;11.27;100.00
72116;BME280;59991;52.140;5.428;2023-05-12T02:20:16;101694.66;;;11.27;100.00
72116;BME280;59991;52.140;5.428;2023-05-12T02:20:48;101699.34;;;11.26;100.00
72116;BME280;59991;52.140;5.428;2023-05-12T02:21:19;101692.28;;;11.25;100.00
72116;BME280;59991;52.140;5.428;2023-05-12T02:21:51;101696.16;;;11.24;100.00
72116;BME280;59991;52.140;5.428;2023-05-12T02:22:22;101695.38;;;11.24;100.00
72116;BME280;59991;52.140;5.428;2023-05-12T02:22:54;101692.66;;;11.24;100.00
72116;BME280;59991;52.140;5.428;2023-05-12T02:23:25;101700.84;;;11.24;100.00
72116;BME280;59991;52.140;5.428;2023-05-12T02:23:57;101699.69;;;11.25;100.00
72116;BME280;59991;52.140;5.428;2023-05-12T02:24:28;101695.38;;;11.24;100.00
72116;BME280;59991;52.140;5.428;2023-05-12T02:25:00;101697.75;;;11.25;100.00
72116;BME280;59991;52.140;5.428;2023-05-12T02:25:31;101695.81;;;11.26;100.00
72116;BME280;59991;52.140;5.428;2023-05-12T02:26:03;101698.53;;;11.26;100.00
72116;BME280;59991;52.140;5.428;2023-05-12T02:26:34;101697.75;;;11.25;100.00
72116;BME280;59991;52.140;5.428;2023-05-12T02:27:05;101697.75;;;11.25;100.00
72116;BME280;59991;52.140;5.428;2023-05-12T02:27:37;101696.97;;;11.25;100.00
72116;BME280;59991;52.140;5.428;2023-05-12T02:28:08;101695.38;;;11.24;100.00
72116;BME280;59991;52.140;5.428;2023-05-12T02:28:41;101696.97;;;11.25;100.00
72116;BME280;59991;52.140;5.428;2023-05-12T02:29:13;101696.16;;;11.24;100.00
72116;BME280;59991;52.140;5.428;2023-05-12T02:29:44;101696.97;;;11.25;100.00
72116;BME280;59991;52.140;5.428;2023-05-12T02:30:16;101696.16;;;11.24;100.00
72116;BME280;59991;52.140;5.428;2023-05-12T02:30:49;101698.53;;;11.26;100.00
72116;BME280;59991;52.140;5.428;2023-05-12T02:31:21;101692.66;;;11.24;100.00
72116;BME280;59991;52.140;5.428;2023-05-12T02:31:53;101696.16;;;11.24;100.00
72116;BME280;59991;52.140;5.428;2023-05-12T02:32:24;101696.16;;;11.24;100.00
72116;BME280;59991;52.140;5.428;2023-05-12T02:32:58;101695.38;;;11.24;100.00
72116;BME280;59991;52.140;5.428;2023-05-12T02:33:29;101687.97;;;11.24;100.00
72116;BME280;59991;52.140;5.428;2023-05-12T02:34:01;101693.44;;;11.24;100.00
72116;BME280;59991;52.140;5.428;2023-05-12T02:34:36;101693.09;;;11.26;100.00
72116;BME280;59991;52.140;5.428;2023-05-12T02:35:08;101689.56;;;11.25;100.00
72116;BME280;59991;52.140;5.428;2023-05-12T02:35:40;101695.03;;;11.25;100.00
72116;BME280;59991;52.140;5.428;2023-05-12T02:36:11;101686.03;;;11.25;100.00
72116;BME280;59991;52.140;5.428;2023-05-12T02:36:43;101691.50;;;11.25;100.00
72116;BME280;59991;52.140;5.428;2023-05-12T02:37:14;101689.56;;;11.25;100.00
72116;BME280;59991;52.140;5.428;2023-05-12T02:37:45;101687.97;;;11.24;100.00
72116;BME280;59991;52.140;5.428;2023-05-12T02:38:17;101690.72;;;11.24;100.00
72116;BME280;59991;52.140;5.428;2023-05-12T02:38:48;101685.25;;;11.24;100.00
72116;BME280;59991;52.140;5.428;2023-05-12T02:39:20;101692.28;;;11.25;100.00
72116;BME280;59991;52.140;5.428;2023-05-12T02:39:51;101690.72;;;11.24;100.00
72116;BME280;59991;52.140;5.428;2023-05-12T02:40:23;101688.78;;;11.25;100.00
72116;BME280;59991;52.140;5.428;2023-05-12T02:40:54;101686.84;;;11.25;100.00
72116;BME280;59991;52.140;5.428;2023-05-12T02:41:26;101689.91;;;11.24;100.00
72116;BME280;59991;52.140;5.428;2023-05-12T02:41:57;101698.09;;;11.24;100.00
72116;BME280;59991;52.140;5.428;2023-05-12T02:42:28;101683.66;;;11.23;100.00
72116;BME280;59991;52.140;5.428;2023-05-12T02:43:05;101689.91;;;11.24;100.00
72116;BME280;59991;52.140;5.428;2023-05-12T02:43:37;101694.59;;;11.23;100.00
72116;BME280;59991;52.140;5.428;2023-05-12T02:44:08;101689.91;;;11.24;100.00
72116;BME280;59991;52.140;5.428;2023-05-12T02:44:40;101683.66;;;11.23;100.00
72116;BME280;59991;52.140;5.428;2023-05-12T02:45:11;101688.34;;;11.23;100.00
72116;BME280;59991;52.140;5.428;2023-05-12T02:45:43;101680.94;;;11.23;100.00
72116;BME280;59991;52.140;5.428;2023-05-12T02:46:14;101682.53;;;11.24;100.00
72116;BME280;59991;52.140;5.428;2023-05-12T02:46:46;101684.47;;;11.24;100.00